Time,TemperatureF,DewpointF,PressureIn,WindDirection,WindDirectionDegrees,WindSpeedMPH,WindSpeedGustMPH,Humidity,HourlyPrecipIn,Conditions,Clouds,dailyrainin,SoftwareType,DateUTC
2013-09-19 00:00:00,57.0,-99.9,30.03,East,100,6.0,7.0,-999,-99.99,,,-99.99,,2013-09-19 07:00:00,
2013-09-19 00:22:00,57.0,-99.9,30.03,East,100,6.0,7.0,-999,-99.99,,,-99.99,,2013-09-19 07:22:00,
2013-09-19 00:33:00,57.0,-99.9,30.03,East,100,6.0,7.0,-999,-99.99,,,-99.99,,2013-09-19 07:33:00,
2013-09-19 00:42:00,57.0,-99.9,30.03,East,100,6.0,7.0,-999,-99.99,,,-99.99,,2013-09-19 07:42:00,
2013-09-19 00:52:00,57.0,-99.9,30.03,East,100,6.0,7.0,-999,-99.99,,,-99.99,,2013-09-19 07:52:00,
2013-09-19 01:00:00,57.0,-99.9,30.01,ENE,70,8.0,8.0,-999,-99.99,,,-99.99,,2013-09-19 08:00:00,
2013-09-19 01:22:00,57.0,-99.9,30.01,ENE,70,8.0,8.0,-999,-99.99,,,-99.99,,2013-09-19 08:22:00,
2013-09-19 01:33:00,57.0,-99.9,30.01,ENE,70,8.0,8.0,-999,-99.99,,,-99.99,,2013-09-19 08:33:00,
2013-09-19 01:42:00,57.0,-99.9,30.01,ENE,70,8.0,8.0,-999,-99.99,,,-99.99,,2013-09-19 08:42:00,
2013-09-19 01:52:00,57.0,-99.9,30.01,ENE,70,8.0,8.0,-999,-99.99,,,-99.99,,2013-09-19 08:52:00,
2013-09-19 02:00:00,57.0,-99.9,30.00,East,80,6.0,6.0,-999,-99.99,,,-99.99,,2013-09-19 09:00:00,
2013-09-19 02:22:00,57.0,-99.9,30.00,East,80,6.0,6.0,-999,-99.99,,,-99.99,,2013-09-19 09:22:00,
2013-09-19 02:34:00,57.0,-99.9,30.00,East,80,6.0,6.0,-999,-99.99,,,-99.99,,2013-09-19 09:34:00,
2013-09-19 02:43:00,57.0,-99.9,30.00,East,80,6.0,6.0,-999,-99.99,,,-99.99,,2013-09-19 09:43:00,
2013-09-19 02:53:00,57.0,-99.9,30.00,East,80,6.0,6.0,-999,-99.99,,,-99.99,,2013-09-19 09:53:00,
2013-09-19 03:00:00,58.0,-99.9,29.99,NE,50,2.0,3.0,-999,-99.99,,,-99.99,,2013-09-19 10:00:00,
2013-09-19 03:24:00,58.0,-99.9,29.99,NE,50,2.0,3.0,-999,-99.99,,,-99.99,,2013-09-19 10:24:00,
2013-09-19 03:33:00,58.0,-99.9,29.99,NE,50,2.0,3.0,-999,-99.99,,,-99.99,,2013-09-19 10:33:00,
2013-09-19 03:43:00,58.0,-99.9,29.99,NE,50,2.0,3.0,-999,-99.99,,,-99.99,,2013-09-19 10:43:00,
2013-09-19 03:52:00,58.0,-99.9,29.99,NE,50,2.0,3.0,-999,-99.99,,,-99.99,,2013-09-19 10:52:00,
2013-09-19 04:00:00,57.0,-99.9,29.97,ENE,70,6.0,7.0,-999,-99.99,,,-99.99,,2013-09-19 11:00:00,
2013-09-19 04:22:00,57.0,-99.9,29.97,ENE,70,6.0,7.0,-999,-99.99,,,-99.99,,2013-09-19 11:22:00,
2013-09-19 04:33:00,57.0,-99.9,29.97,ENE,70,6.0,7.0,-999,-99.99,,,-99.99,,2013-09-19 11:33:00,
2013-09-19 04:42:00,57.0,-99.9,29.97,ENE,70,6.0,7.0,-999,-99.99,,,-99.99,,2013-09-19 11:42:00,
2013-09-19 04:53:00,57.0,-99.9,29.97,ENE,70,6.0,7.0,-999,-99.99,,,-99.99,,2013-09-19 11:53:00,
2013-09-19 05:00:00,56.0,-99.9,29.95,ENE,70,9.0,10.0,-999,-99.99,,,-99.99,,2013-09-19 12:00:00,
2013-09-19 05:22:00,56.0,-99.9,29.95,ENE,70,9.0,10.0,-999,-99.99,,,-99.99,,2013-09-19 12:22:00,
2013-09-19 05:32:00,56.0,-99.9,29.95,ENE,70,9.0,10.0,-999,-99.99,,,-99.99,,2013-09-19 12:32:00,
2013-09-19 05:43:00,56.0,-99.9,29.95,ENE,70,9.0,10.0,-999,-99.99,,,-99.99,,2013-09-19 12:43:00,
2013-09-19 05:52:00,56.0,-99.9,29.95,ENE,70,9.0,10.0,-999,-99.99,,,-99.99,,2013-09-19 12:52:00,
2013-09-19 06:00:00,56.0,-99.9,29.94,ENE,70,8.0,9.0,-999,-99.99,,,-99.99,,2013-09-19 13:00:00,
2013-09-19 06:22:00,56.0,-99.9,29.94,ENE,70,8.0,9.0,-999,-99.99,,,-99.99,,2013-09-19 13:22:00,
2013-09-19 06:32:00,56.0,-99.9,29.94,ENE,70,8.0,9.0,-999,-99.99,,,-99.99,,2013-09-19 13:32:00,
2013-09-19 06:43:00,56.0,-99.9,29.94,ENE,70,8.0,9.0,-999,-99.99,,,-99.99,,2013-09-19 13:43:00,
2013-09-19 06:52:00,56.0,-99.9,29.94,ENE,70,8.0,9.0,-999,-99.99,,,-99.99,,2013-09-19 13:52:00,
2013-09-19 07:00:00,56.0,-99.9,29.93,ENE,70,11.0,13.0,-999,-99.99,,,-99.99,,2013-09-19 14:00:00,
2013-09-19 07:22:00,56.0,-99.9,29.93,ENE,70,11.0,13.0,-999,-99.99,,,-99.99,,2013-09-19 14:22:00,
2013-09-19 07:32:00,56.0,-99.9,29.93,ENE,70,11.0,13.0,-999,-99.99,,,-99.99,,2013-09-19 14:32:00,
2013-09-19 07:42:00,56.0,-99.9,29.93,ENE,70,11.0,13.0,-999,-99.99,,,-99.99,,2013-09-19 14:42:00,
2013-09-19 07:52:00,56.0,-99.9,29.93,ENE,70,11.0,13.0,-999,-99.99,,,-99.99,,2013-09-19 14:52:00,
2013-09-19 08:00:00,57.0,-99.9,29.92,ENE,70,6.0,7.0,-999,-99.99,,,-99.99,,2013-09-19 15:00:00,
2013-09-19 08:22:00,57.0,-99.9,29.92,ENE,70,6.0,7.0,-999,-99.99,,,-99.99,,2013-09-19 15:22:00,
2013-09-19 08:33:00,57.0,-99.9,29.92,ENE,70,6.0,7.0,-999,-99.99,,,-99.99,,2013-09-19 15:33:00,
2013-09-19 08:43:00,57.0,-99.9,29.92,ENE,70,6.0,7.0,-999,-99.99,,,-99.99,,2013-09-19 15:43:00,
2013-09-19 08:54:00,57.0,-99.9,29.92,ENE,70,6.0,7.0,-999,-99.99,,,-99.99,,2013-09-19 15:54:00,
2013-09-19 09:00:00,57.0,-99.9,29.91,East,80,6.0,7.0,-999,-99.99,,,-99.99,,2013-09-19 16:00:00,
2013-09-19 09:24:00,57.0,-99.9,29.91,East,80,6.0,7.0,-999,-99.99,,,-99.99,,2013-09-19 16:24:00,
2013-09-19 09:33:00,57.0,-99.9,29.91,East,80,6.0,7.0,-999,-99.99,,,-99.99,,2013-09-19 16:33:00,
2013-09-19 09:43:00,57.0,-99.9,29.91,East,80,6.0,7.0,-999,-99.99,,,-99.99,,2013-09-19 16:43:00,
2013-09-19 09:53:00,57.0,-99.9,29.91,East,80,6.0,7.0,-999,-99.99,,,-99.99,,2013-09-19 16:53:00,
2013-09-19 10:00:00,60.0,-99.9,29.91,North,0,0.0,1.0,-999,-99.99,,,-99.99,,2013-09-19 17:00:00,
2013-09-19 10:23:00,60.0,-99.9,29.91,North,0,0.0,1.0,-999,-99.99,,,-99.99,,2013-09-19 17:23:00,
2013-09-19 10:34:00,60.0,-99.9,29.91,North,0,0.0,1.0,-999,-99.99,,,-99.99,,2013-09-19 17:34:00,
2013-09-19 10:42:00,60.0,-99.9,29.91,North,0,0.0,1.0,-999,-99.99,,,-99.99,,2013-09-19 17:42:00,
2013-09-19 10:53:00,60.0,-99.9,29.91,North,0,0.0,1.0,-999,-99.99,,,-99.99,,2013-09-19 17:53:00,
2013-09-19 11:00:00,62.0,-99.9,29.90,SSW,200,1.0,2.0,-999,-99.99,,,-99.99,,2013-09-19 18:00:00,
2013-09-19 11:22:00,62.0,-99.9,29.90,SSW,200,1.0,2.0,-999,-99.99,,,-99.99,,2013-09-19 18:22:00,
2013-09-19 11:32:00,62.0,-99.9,29.90,SSW,200,1.0,2.0,-999,-99.99,,,-99.99,,2013-09-19 18:32:00,
2013-09-19 11:42:00,62.0,-99.9,29.90,SSW,200,1.0,2.0,-999,-99.99,,,-99.99,,2013-09-19 18:42:00,
2013-09-19 11:52:00,62.0,-99.9,29.90,SSW,200,1.0,2.0,-999,-99.99,,,-99.99,,2013-09-19 18:52:00,
2013-09-19 12:00:00,63.0,-99.9,29.88,SSE,160,3.0,5.0,-999,-99.99,,,-99.99,,2013-09-19 19:00:00,
2013-09-19 12:22:00,63.0,-99.9,29.88,SSE,160,3.0,5.0,-999,-99.99,,,-99.99,,2013-09-19 19:22:00,
2013-09-19 12:32:00,63.0,-99.9,29.88,SSE,160,3.0,5.0,-999,-99.99,,,-99.99,,2013-09-19 19:32:00,
2013-09-19 12:42:00,63.0,-99.9,29.88,SSE,160,3.0,5.0,-999,-99.99,,,-99.99,,2013-09-19 19:42:00,
2013-09-19 12:52:00,63.0,-99.9,29.88,SSE,160,3.0,5.0,-999,-99.99,,,-99.99,,2013-09-19 19:52:00,
2013-09-19 13:00:00,65.0,-99.9,29.86,South,170,17.0,21.0,-999,-99.99,,,-99.99,,2013-09-19 20:00:00,
2013-09-19 13:22:00,65.0,-99.9,29.86,South,170,17.0,21.0,-999,-99.99,,,-99.99,,2013-09-19 20:22:00,
2013-09-19 13:32:00,65.0,-99.9,29.86,South,170,17.0,21.0,-999,-99.99,,,-99.99,,2013-09-19 20:32:00,
2013-09-19 13:42:00,65.0,-99.9,29.86,South,170,17.0,21.0,-999,-99.99,,,-99.99,,2013-09-19 20:42:00,
2013-09-19 13:52:00,65.0,-99.9,29.86,South,170,17.0,21.0,-999,-99.99,,,-99.99,,2013-09-19 20:52:00,
2013-09-19 14:00:00,65.0,-99.9,29.84,SSW,200,25.0,26.0,-999,-99.99,,,-99.99,,2013-09-19 21:00:00,
2013-09-19 14:22:00,65.0,-99.9,29.84,SSW,200,25.0,26.0,-999,-99.99,,,-99.99,,2013-09-19 21:22:00,
2013-09-19 14:34:00,65.0,-99.9,29.84,SSW,200,25.0,26.0,-999,-99.99,,,-99.99,,2013-09-19 21:34:00,
2013-09-19 14:44:00,65.0,-99.9,29.84,SSW,200,25.0,26.0,-999,-99.99,,,-99.99,,2013-09-19 21:44:00,
2013-09-19 14:55:00,65.0,-99.9,29.84,SSW,200,25.0,26.0,-999,-99.99,,,-99.99,,2013-09-19 21:55:00,
2013-09-19 15:00:00,65.0,-99.9,29.82,SSW,200,26.0,28.0,-999,-99.99,,,-99.99,,2013-09-19 22:00:00,
2013-09-19 15:43:00,65.0,-99.9,29.82,SSW,200,26.0,28.0,-999,-99.99,,,-99.99,,2013-09-19 22:43:00,
2013-09-19 15:53:00,65.0,-99.9,29.82,SSW,200,26.0,28.0,-999,-99.99,,,-99.99,,2013-09-19 22:53:00,
2013-09-19 16:00:00,64.0,-99.9,29.81,SSW,200,25.0,29.0,-999,-99.99,,,-99.99,,2013-09-19 23:00:00,
2013-09-19 16:23:00,64.0,-99.9,29.81,SSW,200,25.0,29.0,-999,-99.99,,,-99.99,,2013-09-19 23:23:00,
2013-09-19 16:34:00,64.0,-99.9,29.81,SSW,200,25.0,29.0,-999,-99.99,,,-99.99,,2013-09-19 23:34:00,
2013-09-19 16:43:00,64.0,-99.9,29.81,SSW,200,25.0,29.0,-999,-99.99,,,-99.99,,2013-09-19 23:43:00,
2013-09-19 16:53:00,64.0,-99.9,29.81,SSW,200,25.0,29.0,-999,-99.99,,,-99.99,,2013-09-19 23:53:00,
2013-09-19 17:00:00,63.0,-99.9,29.80,South,190,21.0,22.0,-999,-99.99,,,-99.99,,2013-09-20 00:00:00,
2013-09-19 17:22:00,63.0,-99.9,29.80,South,190,21.0,22.0,-999,-99.99,,,-99.99,,2013-09-20 00:22:00,
2013-09-19 17:32:00,63.0,-99.9,29.80,South,190,21.0,22.0,-999,-99.99,,,-99.99,,2013-09-20 00:32:00,
2013-09-19 17:42:00,63.0,-99.9,29.80,South,190,21.0,22.0,-999,-99.99,,,-99.99,,2013-09-20 00:42:00,
2013-09-19 17:52:00,63.0,-99.9,29.80,South,190,21.0,22.0,-999,-99.99,,,-99.99,,2013-09-20 00:52:00,
2013-09-19 18:00:00,62.0,-99.9,29.78,South,170,17.0,18.0,-999,-99.99,,,-99.99,,2013-09-20 01:00:00,
2013-09-19 18:22:00,62.0,-99.9,29.78,South,170,17.0,18.0,-999,-99.99,,,-99.99,,2013-09-20 01:22:00,
2013-09-19 18:32:00,62.0,-99.9,29.78,South,170,17.0,18.0,-999,-99.99,,,-99.99,,2013-09-20 01:32:00,
2013-09-19 18:42:00,62.0,-99.9,29.78,South,170,17.0,18.0,-999,-99.99,,,-99.99,,2013-09-20 01:42:00,
2013-09-19 18:52:00,62.0,-99.9,29.78,South,170,17.0,18.0,-999,-99.99,,,-99.99,,2013-09-20 01:52:00,
2013-09-19 19:00:00,62.0,-99.9,29.78,SSE,160,18.0,21.0,-999,-99.99,,,-99.99,,2013-09-20 02:00:00,
2013-09-19 19:23:00,62.0,-99.9,29.78,SSE,160,18.0,21.0,-999,-99.99,,,-99.99,,2013-09-20 02:23:00,
2013-09-19 19:32:00,62.0,-99.9,29.78,SSE,160,18.0,21.0,-999,-99.99,,,-99.99,,2013-09-20 02:32:00,
2013-09-19 19:43:00,62.0,-99.9,29.78,SSE,160,18.0,21.0,-999,-99.99,,,-99.99,,2013-09-20 02:43:00,
2013-09-19 19:53:00,62.0,-99.9,29.78,SSE,160,18.0,21.0,-999,-99.99,,,-99.99,,2013-09-20 02:53:00,
2013-09-19 20:00:00,61.0,-99.9,29.78,SSE,150,17.0,20.0,-999,-99.99,,,-99.99,,2013-09-20 03:00:00,
2013-09-19 20:23:00,61.0,-99.9,29.78,SSE,150,17.0,20.0,-999,-99.99,,,-99.99,,2013-09-20 03:23:00,
2013-09-19 20:34:00,61.0,-99.9,29.78,SSE,150,17.0,20.0,-999,-99.99,,,-99.99,,2013-09-20 03:34:00,
2013-09-19 20:45:00,61.0,-99.9,29.78,SSE,150,17.0,20.0,-999,-99.99,,,-99.99,,2013-09-20 03:45:00,
2013-09-19 20:56:00,61.0,-99.9,29.78,SSE,150,17.0,20.0,-999,-99.99,,,-99.99,,2013-09-20 03:56:00,
2013-09-19 21:00:00,62.0,-99.9,29.78,SSE,150,17.0,20.0,-999,-99.99,,,-99.99,,2013-09-20 04:00:00,
2013-09-19 21:24:00,62.0,-99.9,29.78,SSE,150,17.0,20.0,-999,-99.99,,,-99.99,,2013-09-20 04:24:00,
2013-09-19 21:34:00,62.0,-99.9,29.78,SSE,150,17.0,20.0,-999,-99.99,,,-99.99,,2013-09-20 04:34:00,
2013-09-19 21:44:00,62.0,-99.9,29.78,SSE,150,17.0,20.0,-999,-99.99,,,-99.99,,2013-09-20 04:44:00,
2013-09-19 21:54:00,62.0,-99.9,29.78,SSE,150,17.0,20.0,-999,-99.99,,,-99.99,,2013-09-20 04:54:00,
2013-09-19 22:00:00,62.0,-99.9,29.78,SE,140,20.0,22.0,-999,-99.99,,,-99.99,,2013-09-20 05:00:00,
2013-09-19 22:23:00,62.0,-99.9,29.78,SE,140,20.0,22.0,-999,-99.99,,,-99.99,,2013-09-20 05:23:00,
2013-09-19 22:34:00,62.0,-99.9,29.78,SE,140,20.0,22.0,-999,-99.99,,,-99.99,,2013-09-20 05:34:00,
2013-09-19 22:43:00,62.0,-99.9,29.78,SE,140,20.0,22.0,-999,-99.99,,,-99.99,,2013-09-20 05:43:00,
2013-09-19 22:53:00,62.0,-99.9,29.78,SE,140,20.0,22.0,-999,-99.99,,,-99.99,,2013-09-20 05:53:00,
2013-09-19 23:00:00,62.0,-99.9,29.78,SE,140,20.0,21.0,-999,-99.99,,,-99.99,,2013-09-20 06:00:00,
2013-09-19 23:22:00,62.0,-99.9,29.78,SE,140,20.0,21.0,-999,-99.99,,,-99.99,,2013-09-20 06:22:00,
2013-09-19 23:33:00,62.0,-99.9,29.78,SE,140,20.0,21.0,-999,-99.99,,,-99.99,,2013-09-20 06:33:00,
2013-09-19 23:43:00,62.0,-99.9,29.78,SE,140,20.0,21.0,-999,-99.99,,,-99.99,,2013-09-20 06:43:00,
2013-09-19 23:52:00,62.0,-99.9,29.78,SE,140,20.0,21.0,-999,-99.99,,,-99.99,,2013-09-20 06:52:00,